sensor_id;sensor_type;location;lat;lon;timestamp;pressure;altitude;pressure_sealevel;temperature;humidity
19751;BME280;4663;49.120;9.730;2023-09-12T00:00:15;97745.56;;;17.78;78.42
19751;BME280;4663;49.120;9.730;2023-09-12T00:02:41;97739.66;;;18.02;78.21
19751;BME280;4663;49.120;9.730;2023-09-12T00:05:06;97750.56;;;17.88;78.73
19751;BME280;4663;49.120;9.730;2023-09-12T00:07:32;97737.34;;;18.44;75.79
19751;BME280;4663;49.120;9.730;2023-09-12T00:09:57;97742.41;;;17.95;77.55
19751;BME280;4663;49.120;9.730;2023-09-12T00:12:23;97745.97;;;17.89;78.71
19751;BME280;4663;49.120;9.730;2023-09-12T00:14:52;97733.88;;;17.78;78.18
19751;BME280;4663;49.120;9.730;2023-09-12T00:17:17;97738.13;;;18.12;77.37
19751;BME280;4663;49.120;9.730;2023-09-12T00:19:43;97731.91;;;18.12;76.36
19751;BME280;4663;49.120;9.730;2023-09-12T00:22:09;97734.09;;;18.29;75.91
19751;BME280;4663;49.120;9.730;2023-09-12T00:24:34;97731.59;;;18.27;76.09
19751;BME280;4663;49.120;9.730;2023-09-12T00:26:59;97728.09;;;17.54;78.42
19751;BME280;4663;49.120;9.730;2023-09-12T00:29:25;97725.78;;;17.71;77.94
19751;BME280;4663;49.120;9.730;2023-09-12T00:31:50;97718.72;;;17.56;78.54
19751;BME280;4663;49.120;9.730;2023-09-12T00:34:18;97721.41;;;17.70;78.40
19751;BME280;4663;49.120;9.730;2023-09-12T00:36:44;97725.78;;;17.71;77.87
19751;BME280;4663;49.120;9.730;2023-09-12T00:39:09;97720.59;;;17.56;78.59
19751;BME280;4663;49.120;9.730;2023-09-12T00:41:35;97719.38;;;17.52;78.67
19751;BME280;4663;49.120;9.730;2023-09-12T00:44:00;97714.28;;;17.69;78.12
19751;BME280;4663;49.120;9.730;2023-09-12T00:46:26;97718.03;;;17.74;78.21
19751;BME280;4663;49.120;9.730;2023-09-12T00:48:53;97721.41;;;17.63;78.56
19751;BME280;4663;49.120;9.730;2023-09-12T00:51:21;97719.69;;;17.82;77.88
19751;BME280;4663;49.120;9.730;2023-09-12T00:53:49;97706.22;;;17.55;78.63
19751;BME280;4663;49.120;9.730;2023-09-12T00:56:14;97709.50;;;17.71;77.82
19751;BME280;4663;49.120;9.730;2023-09-12T00:58:40;97712.25;;;17.64;77.76
19751;BME280;4663;49.120;9.730;2023-09-12T01:01:06;97699.22;;;17.93;77.11
19751;BME280;4663;49.120;9.730;2023-09-12T01:03:32;97705.91;;;17.84;76.80
19751;BME280;4663;49.120;9.730;2023-09-12T01:05:59;97711.63;;;18.15;75.98
19751;BME280;4663;49.120;9.730;2023-09-12T01:08:25;97711.28;;;17.97;76.49
19751;BME280;4663;49.120;9.730;2023-09-12T01:10:52;97704.53;;;18.14;75.48
19751;BME280;4663;49.120;9.730;2023-09-12T01:13:18;97710.66;;;18.02;75.44
19751;BME280;4663;49.120;9.730;2023-09-12T01:15:44;97709.66;;;17.83;76.23
19751;BME280;4663;49.120;9.730;2023-09-12T01:18:09;97713.84;;;17.85;76.32
19751;BME280;4663;49.120;9.730;2023-09-12T01:20:36;97711.81;;;17.67;77.08
19751;BME280;4663;49.120;9.730;2023-09-12T01:28:45;97711.91;;;17.20;78.45
19751;BME280;4663;49.120;9.730;2023-09-12T01:31:11;97715.25;;;17.22;78.79
19751;BME280;4663;49.120;9.730;2023-09-12T01:33:37;97716.06;;;17.29;78.22
19751;BME280;4663;49.120;9.730;2023-09-12T01:36:03;97714.00;;;17.25;78.19
19751;BME280;4663;49.120;9.730;2023-09-12T01:38:28;97723.97;;;17.31;77.92
19751;BME280;4663;49.120;9.730;2023-09-12T01:40:55;97719.00;;;17.34;77.47
19751;BME280;4663;49.120;9.730;2023-09-12T01:43:23;97713.78;;;17.19;78.27
19751;BME280;4663;49.120;9.730;2023-09-12T01:45:56;97714.41;;;17.42;77.62
19751;BME280;4663;49.120;9.730;2023-09-12T01:48:25;97716.44;;;17.46;77.44
19751;BME280;4663;49.120;9.730;2023-09-12T01:50:52;97717.28;;;17.47;76.98
19751;BME280;4663;49.120;9.730;2023-09-12T01:53:18;97726.91;;;17.22;78.61
19751;BME280;4663;49.120;9.730;2023-09-12T01:55:45;97713.19;;;17.04;78.72
19751;BME280;4663;49.120;9.730;2023-09-12T01:58:14;97716.06;;;17.36;77.49
19751;BME280;4663;49.120;9.730;2023-09-12T02:00:40;97715.25;;;17.29;77.80
19751;BME280;4663;49.120;9.730;2023-09-12T02:03:06;97715.22;;;17.35;77.35
19751;BME280;4663;49.120;9.730;2023-09-12T02:05:32;97712.34;;;17.24;77.60
19751;BME280;4663;49.120;9.730;2023-09-12T02:07:57;97720.59;;;17.49;77.18
19751;BME280;4663;49.120;9.730;2023-09-12T02:10:25;97715.06;;;17.03;78.15
19751;BME280;4663;49.120;9.730;2023-09-12T02:12:50;97711.69;;;16.94;78.51
19751;BME280;4663;49.120;9.730;2023-09-12T02:15:16;97717.38;;;17.00;77.96
19751;BME280;4663;49.120;9.730;2023-09-12T02:17:41;97720.66;;;16.95;78.25
19751;BME280;4663;49.120;9.730;2023-09-12T02:20:08;97720.25;;;17.18;77.30
19751;BME280;4663;49.120;9.730;2023-09-12T02:22:34;97723.00;;;17.05;78.33
19751;BME280;4663;49.120;9.730;2023-09-12T02:24:59;97716.50;;;16.92;78.45
19751;BME280;4663;49.120;9.730;2023-09-12T02:27:24;97710.47;;;16.90;78.62
19751;BME280;4663;49.120;9.730;2023-09-12T02:29:50;97716.94;;;17.03;77.87
19751;BME280;4663;49.120;9.730;2023-09-12T02:32:15;97714.81;;;16.91;78.60
19751;BME280;4663;49.120;9.730;2023-09-12T02:34:40;97718.59;;;17.17;77.59
19751;BME280;4663;49.120;9.730;2023-09-12T02:37:06;97720.25;;;17.18;77.91
19751;BME280;4663;49.120;9.730;2023-09-12T02:39:31;97712.97;;;17.12;77.41
19751;BME280;4663;49.120;9.730;2023-09-12T02:41:56;97722.78;;;17.13;78.08
19751;BME280;4663;49.120;9.730;2023-09-12T02:44:22;97726.31;;;16.87;78.10
19751;BME280;4663;49.120;9.730;2023-09-12T02:46:47;97724.00;;;16.90;78.32
19751;BME280;4663;49.120;9.730;2023-09-12T02:49:13;97712.94;;;16.65;79.31
19751;BME280;4663;49.120;9.730;2023-09-12T02:51:39;97709.22;;;16.79;78.60
19751;BME280;4663;49.120;9.730;2023-09-12T02:54:05;97718.34;;;16.44;79.95
19751;BME280;4663;49.120;9.730;2023-09-12T02:56:30;97716.66;;;16.30;80.16
19751;BME280;4663;49.120;9.730;2023-09-12T02:58:56;97710.69;;;16.68;78.61
19751;BME280;4663;49.120;9.730;2023-09-12T03:01:21;97704.41;;;16.75;78.77
19751;BME280;4663;49.120;9.730;2023-09-12T03:03:47;97711.69;;;16.61;79.14
19751;BME280;4663;49.120;9.730;2023-09-12T03:06:13;97711.44;;;16.35;80.05
19751;BME280;4663;49.120;9.730;2023-09-12T03:08:40;97700.69;;;16.76;78.04
19751;BME280;4663;49.120;9.730;2023-09-12T03:11:05;97697.53;;;16.72;78.48
19751;BME280;4663;49.120;9.730;2023-09-12T03:13:32;97699.16;;;16.32;78.88
19751;BME280;4663;49.120;9.730;2023-09-12T03:15:58;97691.03;;;16.26;79.78
19751;BME280;4663;49.120;9.730;2023-09-12T03:18:23;97692.09;;;16.25;79.63
19751;BME280;4663;49.120;9.730;2023-09-12T03:20:49;97691.91;;;16.47;78.72
19751;BME280;4663;49.120;9.730;2023-09-12T03:23:14;97688.78;;;16.50;79.02
19751;BME280;4663;49.120;9.730;2023-09-12T03:25:39;97687.34;;;16.54;79.21
19751;BME280;4663;49.120;9.730;2023-09-12T03:28:06;97684.38;;;16.22;79.66
19751;BME280;4663;49.120;9.730;2023-09-12T03:30:33;97683.09;;;16.11;79.26
19751;BME280;4663;49.120;9.730;2023-09-12T03:32:59;97677.91;;;16.16;79.42
19751;BME280;4663;49.120;9.730;2023-09-12T03:35:24;97680.00;;;16.27;79.44
19751;BME280;4663;49.120;9.730;2023-09-12T03:37:49;97669.44;;;16.60;78.01
19751;BME280;4663;49.120;9.730;2023-09-12T03:40:15;97677.34;;;16.75;77.88
19751;BME280;4663;49.120;9.730;2023-09-12T03:42:40;97682.56;;;16.56;78.01
19751;BME280;4663;49.120;9.730;2023-09-12T03:45:06;97675.59;;;16.13;79.86
19751;BME280;4663;49.120;9.730;2023-09-12T03:47:31;97680.34;;;16.04;80.19
19751;BME280;4663;49.120;9.730;2023-09-12T03:49:57;97672.50;;;16.16;80.12
19751;BME280;4663;49.120;9.730;2023-09-12T03:52:22;97670.28;;;16.60;78.12
19751;BME280;4663;49.120;9.730;2023-09-12T03:54:47;97667.75;;;16.79;77.87
19751;BME280;4663;49.120;9.730;2023-09-12T03:57:13;97676.06;;;16.30;78.51
19751;BME280;4663;49.120;9.730;2023-09-12T03:59:38;97675.09;;;15.96;79.86
19751;BME280;4663;49.120;9.730;2023-09-12T04:02:04;97680.22;;;16.26;79.49
19751;BME280;4663;49.120;9.730;2023-09-12T04:04:29;97674.63;;;16.54;77.89
19751;BME280;4663;49.120;9.730;2023-09-12T04:06:54;97687.09;;;16.22;79.45
19751;BME280;4663;49.120;9.730;2023-09-12T04:09:20;97677.75;;;16.58;78.07
19751;BME280;4663;49.120;9.730;2023-09-12T04:11:46;97689.78;;;16.28;78.74
19751;BME280;4663;49.120;9.730;2023-09-12T04:14:13;97687.69;;;16.10;79.64
19751;BME280;4663;49.120;9.730;2023-09-12T04:16:39;97686.69;;;16.38;79.05
19751;BME280;4663;49.120;9.730;2023-09-12T04:19:04;97687.00;;;16.01;79.51
19751;BME280;4663;49.120;9.730;2023-09-12T04:21:30;97692.19;;;15.96;79.85
19751;BME280;4663;49.120;9.730;2023-09-12T04:23:55;97695.94;;;15.95;80.03
19751;BME280;4663;49.120;9.730;2023-09-12T04:26:20;97687.28;;;16.27;78.79
19751;BME280;4663;49.120;9.730;2023-09-12T04:28:49;97695.16;;;16.08;79.41
19751;BME280;4663;49.120;9.730;2023-09-12T04:31:15;97691.38;;;16.02;79.57
19751;BME280;4663;49.120;9.730;2023-09-12T04:33:40;97692.50;;;16.35;78.69
19751;BME280;4663;49.120;9.730;2023-09-12T04:36:06;97691.25;;;16.31;78.54
19751;BME280;4663;49.120;9.730;2023-09-12T04:38:31;97691.06;;;16.39;78.46
19751;BME280;4663;49.120;9.730;2023-09-12T04:41:01;97686.69;;;16.38;78.33
19751;BME280;4663;49.120;9.730;2023-09-12T04:43:33;97685.63;;;16.19;78.90
19751;BME280;4663;49.120;9.730;2023-09-12T04:45:58;97678.56;;;16.38;78.51
19751;BME280;4663;49.120;9.730;2023-09-12T04:48:24;97681.88;;;16.27;78.46
19751;BME280;4663;49.120;9.730;2023-09-12T04:50:49;97686.88;;;16.23;78.79
19751;BME280;4663;49.120;9.730;2023-09-12T04:53:15;97693.28;;;16.15;79.16
19751;BME280;4663;49.120;9.730;2023-09-12T04:55:40;97685.84;;;16.38;78.04
19751;BME280;4663;49.120;9.730;2023-09-12T04:58:07;97683.53;;;16.28;78.48
19751;BME280;4663;49.120;9.730;2023-09-12T05:00:33;97681.88;;;16.27;79.19
19751;BME280;4663;49.120;9.730;2023-09-12T05:02:59;97690.03;;;16.40;78.11
19751;BME280;4663;49.120;9.730;2023-09-12T05:05:24;97686.78;;;15.96;80.26
19751;BME280;4663;49.120;9.730;2023-09-12T05:07:50;97683.22;;;15.96;79.74
19751;BME280;4663;49.120;9.730;2023-09-12T05:10:17;97678.38;;;16.60;77.85
19751;BME280;4663;49.120;9.730;2023-09-12T05:12:44;97685.63;;;16.39;78.09
19751;BME280;4663;49.120;9.730;2023-09-12T05:15:09;97679.81;;;16.42;78.63
19751;BME280;4663;49.120;9.730;2023-09-12T05:17:35;97681.72;;;16.49;78.19
19751;BME280;4663;49.120;9.730;2023-09-12T05:20:00;97681.22;;;16.18;79.52
19751;BME280;4663;49.120;9.730;2023-09-12T05:22:25;97682.75;;;16.54;77.93
19751;BME280;4663;49.120;9.730;2023-09-12T05:24:53;97686.69;;;16.45;78.17
19751;BME280;4663;49.120;9.730;2023-09-12T05:27:19;97679.81;;;16.83;77.49
19751;BME280;4663;49.120;9.730;2023-09-12T05:29:44;97673.16;;;16.92;77.27
19751;BME280;4663;49.120;9.730;2023-09-12T05:32:09;97685.03;;;16.78;78.23
19751;BME280;4663;49.120;9.730;2023-09-12T05:34:35;97693.16;;;16.37;79.17
19751;BME280;4663;49.120;9.730;2023-09-12T05:37:00;97697.53;;;16.58;78.66
19751;BME280;4663;49.120;9.730;2023-09-12T05:39:25;97706.88;;;16.49;79.96
19751;BME280;4663;49.120;9.730;2023-09-12T05:41:51;97695.03;;;16.77;78.58
19751;BME280;4663;49.120;9.730;2023-09-12T05:44:16;97698.56;;;16.84;78.73
19751;BME280;4663;49.120;9.730;2023-09-12T05:46:47;97698.75;;;16.22;79.48
19751;BME280;4663;49.120;9.730;2023-09-12T05:49:16;97697.75;;;16.64;79.05
19751;BME280;4663;49.120;9.730;2023-09-12T05:51:41;97689.41;;;16.65;79.41
19751;BME280;4663;49.120;9.730;2023-09-12T05:54:07;97703.41;;;17.09;77.62
19751;BME280;4663;49.120;9.730;2023-09-12T05:56:34;97702.31;;;16.63;78.49
19751;BME280;4663;49.120;9.730;2023-09-12T05:58:59;97704.00;;;17.18;77.66
19751;BME280;4663;49.120;9.730;2023-09-12T06:01:24;97703.59;;;16.88;78.26
19751;BME280;4663;49.120;9.730;2023-09-12T06:03:50;97697.94;;;17.30;77.17
19751;BME280;4663;49.120;9.730;2023-09-12T06:06:15;97702.13;;;17.19;77.91
19751;BME280;4663;49.120;9.730;2023-09-12T06:08:41;97693.25;;;17.64;75.58
19751;BME280;4663;49.120;9.730;2023-09-12T06:11:06;97699.84;;;17.09;77.22
19751;BME280;4663;49.120;9.730;2023-09-12T06:13:31;97711.09;;;16.92;78.12
19751;BME280;4663;49.120;9.730;2023-09-12T06:15:58;97702.34;;;17.17;77.67
19751;BME280;4663;49.120;9.730;2023-09-12T06:18:24;97714.53;;;17.67;77.10
19751;BME280;4663;49.120;9.730;2023-09-12T06:20:49;97707.19;;;17.74;76.34
19751;BME280;4663;49.120;9.730;2023-09-12T06:23:15;97712.91;;;18.12;75.69
19751;BME280;4663;49.120;9.730;2023-09-12T06:25:40;97706.16;;;18.21;74.63
19751;BME280;4663;49.120;9.730;2023-09-12T06:28:09;97713.44;;;18.28;75.00
19751;BME280;4663;49.120;9.730;2023-09-12T06:30:35;97708.41;;;19.14;72.76
19751;BME280;4663;49.120;9.730;2023-09-12T06:33:00;97710.53;;;19.31;72.31
19751;BME280;4663;49.120;9.730;2023-09-12T06:35:26;97721.38;;;17.77;75.53
19751;BME280;4663;49.120;9.730;2023-09-12T06:37:51;97707.75;;;18.36;74.16
19751;BME280;4663;49.120;9.730;2023-09-12T06:40:16;97711.78;;;18.59;74.30
19751;BME280;4663;49.120;9.730;2023-09-12T06:42:42;97705.13;;;20.06;71.95
19751;BME280;4663;49.120;9.730;2023-09-12T06:45:08;97705.06;;;20.55;70.31
19751;BME280;4663;49.120;9.730;2023-09-12T06:47:34;97715.75;;;19.33;71.97
19751;BME280;4663;49.120;9.730;2023-09-12T06:49:59;97711.56;;;19.93;71.63
19751;BME280;4663;49.120;9.730;2023-09-12T06:52:25;97709.28;;;21.06;70.17
19751;BME280;4663;49.120;9.730;2023-09-12T06:54:50;97705.84;;;19.64;71.02
19751;BME280;4663;49.120;9.730;2023-09-12T06:57:15;97704.31;;;21.03;69.32
19751;BME280;4663;49.120;9.730;2023-09-12T06:59:41;97701.38;;;21.40;68.46
19751;BME280;4663;49.120;9.730;2023-09-12T07:02:06;97710.50;;;21.46;67.71
19751;BME280;4663;49.120;9.730;2023-09-12T07:04:32;97707.31;;;21.49;67.58
19751;BME280;4663;49.120;9.730;2023-09-12T07:06:58;97700.66;;;22.56;65.32
19751;BME280;4663;49.120;9.730;2023-09-12T07:09:23;97714.09;;;22.29;65.23
19751;BME280;4663;49.120;9.730;2023-09-12T07:11:49;97710.50;;;23.83;63.39
19751;BME280;4663;49.120;9.730;2023-09-12T07:14:14;97713.75;;;23.06;63.66
19751;BME280;4663;49.120;9.730;2023-09-12T07:16:40;97708.97;;;24.70;61.73
19751;BME280;4663;49.120;9.730;2023-09-12T07:19:06;97716.25;;;23.42;63.47
19751;BME280;4663;49.120;9.730;2023-09-12T07:21:32;97699.53;;;24.88;61.63
19751;BME280;4663;49.120;9.730;2023-09-12T07:23:57;97718.03;;;25.03;61.05
19751;BME280;4663;49.120;9.730;2023-09-12T07:26:23;97723.38;;;23.43;63.16
19751;BME280;4663;49.120;9.730;2023-09-12T07:28:48;97722.81;;;23.06;64.28
19751;BME280;4663;49.120;9.730;2023-09-12T07:31:14;97706.88;;;23.99;62.66
19751;BME280;4663;49.120;9.730;2023-09-12T07:33:39;97697.66;;;24.94;60.43
19751;BME280;4663;49.120;9.730;2023-09-12T07:36:06;97713.03;;;23.67;62.68
19751;BME280;4663;49.120;9.730;2023-09-12T07:38:32;97721.53;;;23.71;64.06
19751;BME280;4663;49.120;9.730;2023-09-12T07:41:00;97715.16;;;23.43;64.41
19751;BME280;4663;49.120;9.730;2023-09-12T07:43:29;97720.19;;;25.01;61.28
19751;BME280;4663;49.120;9.730;2023-09-12T07:45:58;97716.44;;;25.12;61.35
19751;BME280;4663;49.120;9.730;2023-09-12T07:48:24;97725.03;;;25.69;60.06
19751;BME280;4663;49.120;9.730;2023-09-12T07:50:50;97737.69;;;24.12;63.66
19751;BME280;4663;49.120;9.730;2023-09-12T07:53:16;97726.97;;;24.60;61.85
19751;BME280;4663;49.120;9.730;2023-09-12T07:55:42;97729.91;;;24.26;61.84
19751;BME280;4663;49.120;9.730;2023-09-12T07:58:12;97734.69;;;24.41;62.31
19751;BME280;4663;49.120;9.730;2023-09-12T08:00:38;97739.88;;;24.37;62.49
19751;BME280;4663;49.120;9.730;2023-09-12T08:03:03;97727.56;;;24.95;61.58
19751;BME280;4663;49.120;9.730;2023-09-12T08:05:29;97733.44;;;25.47;60.64
19751;BME280;4663;49.120;9.730;2023-09-12T08:07:54;97735.06;;;25.10;60.73
19751;BME280;4663;49.120;9.730;2023-09-12T08:10:20;97739.84;;;24.87;61.23
19751;BME280;4663;49.120;9.730;2023-09-12T08:12:45;97738.91;;;25.09;61.32
19751;BME280;4663;49.120;9.730;2023-09-12T08:15:11;97737.03;;;25.53;60.92
19751;BME280;4663;49.120;9.730;2023-09-12T08:17:46;97746.72;;;25.23;62.04
19751;BME280;4663;49.120;9.730;2023-09-12T08:20:30;97744.38;;;26.86;59.79
19751;BME280;4663;49.120;9.730;2023-09-12T08:22:55;97739.34;;;26.51;60.10
19751;BME280;4663;49.120;9.730;2023-09-12T08:25:20;97741.69;;;26.01;60.89
19751;BME280;4663;49.120;9.730;2023-09-12T08:27:46;97734.47;;;26.90;59.30
19751;BME280;4663;49.120;9.730;2023-09-12T08:30:15;97729.63;;;26.07;61.08
19751;BME280;4663;49.120;9.730;2023-09-12T08:32:41;97729.69;;;25.26;62.45
19751;BME280;4663;49.120;9.730;2023-09-12T08:35:10;97718.41;;;26.24;61.89
19751;BME280;4663;49.120;9.730;2023-09-12T08:37:37;97725.44;;;25.08;63.36
19751;BME280;4663;49.120;9.730;2023-09-12T08:40:02;97718.75;;;25.74;61.67
19751;BME280;4663;49.120;9.730;2023-09-12T08:42:45;97723.94;;;27.54;59.93
19751;BME280;4663;49.120;9.730;2023-09-12T08:47:45;97740.22;;;27.45;58.42
19751;BME280;4663;49.120;9.730;2023-09-12T08:50:13;97728.41;;;26.62;60.91
19751;BME280;4663;49.120;9.730;2023-09-12T08:52:46;97722.91;;;26.56;60.04
19751;BME280;4663;49.120;9.730;2023-09-12T08:55:12;97725.09;;;26.54;60.11
19751;BME280;4663;49.120;9.730;2023-09-12T08:57:39;97723.44;;;26.58;59.51
19751;BME280;4663;49.120;9.730;2023-09-12T09:00:06;97724.72;;;27.76;59.72
19751;BME280;4663;49.120;9.730;2023-09-12T09:02:39;97711.38;;;28.59;56.35
19751;BME280;4663;49.120;9.730;2023-09-12T09:05:06;97709.13;;;28.16;56.92
19751;BME280;4663;49.120;9.730;2023-09-12T09:07:41;97714.69;;;28.96;56.75
19751;BME280;4663;49.120;9.730;2023-09-12T09:10:13;97708.31;;;29.79;54.75
19751;BME280;4663;49.120;9.730;2023-09-12T09:12:40;97718.34;;;29.16;55.95
19751;BME280;4663;49.120;9.730;2023-09-12T09:15:24;97719.97;;;28.93;56.44
19751;BME280;4663;49.120;9.730;2023-09-12T09:17:52;97708.63;;;29.53;54.83
19751;BME280;4663;49.120;9.730;2023-09-12T09:20:34;97705.19;;;28.28;57.15
19751;BME280;4663;49.120;9.730;2023-09-12T09:23:05;97703.63;;;29.26;55.73
19751;BME280;4663;49.120;9.730;2023-09-12T09:25:36;97701.47;;;30.21;55.00
19751;BME280;4663;49.120;9.730;2023-09-12T09:28:07;97697.28;;;30.95;52.52
19751;BME280;4663;49.120;9.730;2023-09-12T09:30:48;97713.66;;;31.11;52.96
19751;BME280;4663;49.120;9.730;2023-09-12T09:33:14;97702.22;;;30.07;53.70
19751;BME280;4663;49.120;9.730;2023-09-12T09:35:46;97684.84;;;30.78;51.40
19751;BME280;4663;49.120;9.730;2023-09-12T09:38:12;97703.63;;;31.15;53.24
19751;BME280;4663;49.120;9.730;2023-09-12T09:40:42;97700.63;;;30.78;52.08
19751;BME280;4663;49.120;9.730;2023-09-12T09:43:07;97691.53;;;29.95;53.81
19751;BME280;4663;49.120;9.730;2023-09-12T09:45:45;97701.19;;;30.94;53.86
19751;BME280;4663;49.120;9.730;2023-09-12T09:48:17;97686.53;;;31.55;52.08
19751;BME280;4663;49.120;9.730;2023-09-12T09:50:43;97685.13;;;31.71;52.99
19751;BME280;4663;49.120;9.730;2023-09-12T09:53:09;97682.25;;;31.01;53.59
19751;BME280;4663;49.120;9.730;2023-09-12T09:55:35;97683.75;;;31.27;52.41
19751;BME280;4663;49.120;9.730;2023-09-12T09:58:01;97672.47;;;30.90;52.49
19751;BME280;4663;49.120;9.730;2023-09-12T10:00:28;97658.00;;;31.82;52.03
19751;BME280;4663;49.120;9.730;2023-09-12T10:02:55;97667.47;;;30.39;54.04
19751;BME280;4663;49.120;9.730;2023-09-12T10:05:21;97651.63;;;31.96;51.43
19751;BME280;4663;49.120;9.730;2023-09-12T10:07:49;97663.69;;;31.02;53.58
19751;BME280;4663;49.120;9.730;2023-09-12T10:10:18;97656.91;;;30.61;52.86
19751;BME280;4663;49.120;9.730;2023-09-12T10:13:04;97657.22;;;30.59;53.37
19751;BME280;4663;49.120;9.730;2023-09-12T10:15:31;97656.16;;;29.53;54.05
19751;BME280;4663;49.120;9.730;2023-09-12T10:17:59;97661.84;;;30.97;53.22
19751;BME280;4663;49.120;9.730;2023-09-12T10:20:33;97659.00;;;30.69;53.63
19751;BME280;4663;49.120;9.730;2023-09-12T10:23:06;97658.09;;;32.42;51.82
19751;BME280;4663;49.120;9.730;2023-09-12T10:25:36;97663.47;;;32.84;50.86
19751;BME280;4663;49.120;9.730;2023-09-12T10:28:06;97670.25;;;32.32;51.11
19751;BME280;4663;49.120;9.730;2023-09-12T10:30:33;97667.88;;;30.85;53.92
19751;BME280;4663;49.120;9.730;2023-09-12T10:33:01;97654.44;;;31.82;52.27
19751;BME280;4663;49.120;9.730;2023-09-12T10:35:32;97656.50;;;31.01;52.13
19751;BME280;4663;49.120;9.730;2023-09-12T10:38:00;97656.19;;;31.50;52.53
19751;BME280;4663;49.120;9.730;2023-09-12T10:40:29;97640.69;;;31.77;50.98
19751;BME280;4663;49.120;9.730;2023-09-12T10:42:56;97655.53;;;31.39;53.84
19751;BME280;4663;49.120;9.730;2023-09-12T10:45:22;97648.09;;;30.59;53.25
19751;BME280;4663;49.120;9.730;2023-09-12T10:47:48;97647.50;;;30.62;53.05
19751;BME280;4663;49.120;9.730;2023-09-12T10:50:13;97638.19;;;32.26;51.17
19751;BME280;4663;49.120;9.730;2023-09-12T10:52:39;97633.50;;;32.13;51.52
19751;BME280;4663;49.120;9.730;2023-09-12T10:55:07;97639.75;;;32.55;50.51
19751;BME280;4663;49.120;9.730;2023-09-12T10:57:33;97636.75;;;33.70;50.33
19751;BME280;4663;49.120;9.730;2023-09-12T11:02:27;97648.63;;;33.21;51.07
19751;BME280;4663;49.120;9.730;2023-09-12T11:05:00;97648.94;;;32.65;51.40
19751;BME280;4663;49.120;9.730;2023-09-12T11:12:55;97623.84;;;32.24;50.89
19751;BME280;4663;49.120;9.730;2023-09-12T11:15:24;97640.13;;;32.40;51.50
19751;BME280;4663;49.120;9.730;2023-09-12T11:18:04;97637.53;;;32.20;51.19
19751;BME280;4663;49.120;9.730;2023-09-12T11:20:53;97637.50;;;32.06;51.09
19751;BME280;4663;49.120;9.730;2023-09-12T11:23:24;97651.84;;;31.57;52.61
19751;BME280;4663;49.120;9.730;2023-09-12T11:26:05;97662.75;;;31.68;53.22
19751;BME280;4663;49.120;9.730;2023-09-12T11:28:31;97638.03;;;32.22;50.32
19751;BME280;4663;49.120;9.730;2023-09-12T11:30:57;97653.31;;;31.69;52.68
19751;BME280;4663;49.120;9.730;2023-09-12T11:33:24;97628.53;;;32.01;50.34
19751;BME280;4663;49.120;9.730;2023-09-12T11:35:53;97640.75;;;31.86;51.48
19751;BME280;4663;49.120;9.730;2023-09-12T11:38:30;97622.13;;;33.15;48.92
19751;BME280;4663;49.120;9.730;2023-09-12T11:40:57;97633.81;;;33.03;49.66
19751;BME280;4663;49.120;9.730;2023-09-12T11:43:25;97624.22;;;33.09;49.76
19751;BME280;4663;49.120;9.730;2023-09-12T11:45:51;97634.06;;;32.38;50.25
19751;BME280;4663;49.120;9.730;2023-09-12T11:48:17;97630.28;;;31.82;50.98
19751;BME280;4663;49.120;9.730;2023-09-12T11:50:49;97646.16;;;32.19;51.72
19751;BME280;4663;49.120;9.730;2023-09-12T11:53:15;97638.47;;;32.02;53.78
19751;BME280;4663;49.120;9.730;2023-09-12T11:55:48;97628.88;;;32.45;50.72
19751;BME280;4663;49.120;9.730;2023-09-12T11:58:19;97639.56;;;31.64;53.58
19751;BME280;4663;49.120;9.730;2023-09-12T12:00:47;97619.63;;;32.13;51.61
19751;BME280;4663;49.120;9.730;2023-09-12T12:03:14;97622.94;;;32.38;51.80
19751;BME280;4663;49.120;9.730;2023-09-12T12:05:40;97620.22;;;32.01;51.97
19751;BME280;4663;49.120;9.730;2023-09-12T12:08:07;97624.88;;;32.51;51.20
19751;BME280;4663;49.120;9.730;2023-09-12T12:10:34;97619.75;;;31.70;51.89
19751;BME280;4663;49.120;9.730;2023-09-12T12:12:59;97607.91;;;32.30;51.01
19751;BME280;4663;49.120;9.730;2023-09-12T12:15:27;97613.19;;;32.17;51.36
19751;BME280;4663;49.120;9.730;2023-09-12T12:17:56;97617.47;;;32.24;51.62
19751;BME280;4663;49.120;9.730;2023-09-12T12:20:22;97611.22;;;32.41;50.94
19751;BME280;4663;49.120;9.730;2023-09-12T12:22:48;97613.75;;;32.28;52.16
19751;BME280;4663;49.120;9.730;2023-09-12T12:25:17;97617.97;;;32.71;50.95
19751;BME280;4663;49.120;9.730;2023-09-12T12:27:42;97607.16;;;32.38;50.86
19751;BME280;4663;49.120;9.730;2023-09-12T12:30:10;97608.47;;;32.04;52.12
19751;BME280;4663;49.120;9.730;2023-09-12T12:32:42;97607.09;;;31.78;52.44
19751;BME280;4663;49.120;9.730;2023-09-12T12:35:09;97608.97;;;31.69;52.45
19751;BME280;4663;49.120;9.730;2023-09-12T12:37:36;97610.22;;;32.59;51.00
19751;BME280;4663;49.120;9.730;2023-09-12T12:40:06;97606.31;;;32.83;51.49
19751;BME280;4663;49.120;9.730;2023-09-12T12:42:39;97601.16;;;32.45;52.08
19751;BME280;4663;49.120;9.730;2023-09-12T12:45:26;97604.50;;;31.96;54.91
19751;BME280;4663;49.120;9.730;2023-09-12T12:47:59;97592.13;;;31.79;54.00
19751;BME280;4663;49.120;9.730;2023-09-12T12:50:25;97592.97;;;32.03;53.57
19751;BME280;4663;49.120;9.730;2023-09-12T12:52:50;97577.00;;;32.22;51.27
19751;BME280;4663;49.120;9.730;2023-09-12T12:55:16;97593.66;;;32.22;53.03
19751;BME280;4663;49.120;9.730;2023-09-12T12:57:45;97571.53;;;32.31;51.27
19751;BME280;4663;49.120;9.730;2023-09-12T13:00:14;97586.66;;;32.25;52.46
19751;BME280;4663;49.120;9.730;2023-09-12T13:02:41;97590.91;;;31.57;54.27
19751;BME280;4663;49.120;9.730;2023-09-12T13:07:45;97583.06;;;31.88;53.41
19751;BME280;4663;49.120;9.730;2023-09-12T13:10:10;97573.47;;;31.71;53.71
19751;BME280;4663;49.120;9.730;2023-09-12T13:12:36;97570.38;;;31.58;54.82
19751;BME280;4663;49.120;9.730;2023-09-12T13:15:03;97547.13;;;31.82;52.02
19751;BME280;4663;49.120;9.730;2023-09-12T13:17:29;97540.13;;;32.45;49.52
19751;BME280;4663;49.120;9.730;2023-09-12T13:19:54;97541.13;;;32.03;50.15
19751;BME280;4663;49.120;9.730;2023-09-12T13:22:19;97552.28;;;31.10;53.55
19751;BME280;4663;49.120;9.730;2023-09-12T13:24:45;97560.31;;;32.37;51.79
19751;BME280;4663;49.120;9.730;2023-09-12T13:27:11;97571.19;;;31.73;53.50